Time;durP1;ratioP1;P1;durP2;ratioP2;P2;SDS_P1;SDS_P2;PMS_P1;PMS_P2;Temp;Humidity;BMP_temperature;BMP_pressure;BME280_temperature;BME280_humidity;BME280_pressure;Samples;Min_cycle;Max_cycle;Signal;HPM_P1;HPM_P2
2021/04/16 00:00:28;;;;;;;0.10;0.10;;;-0.10;99.90;;;;;;4989967;28;20164;-72
2021/04/16 00:02:54;;;;;;;0.10;0.10;;;-0.30;99.90;;;;;;4988467;28;20203;-72
2021/04/16 00:05:21;;;;;;;0.28;0.28;;;-0.30;99.90;;;;;;4989828;28;20182;-72
2021/04/16 00:07:46;;;;;;;0.43;0.43;;;-0.40;99.90;;;;;;4989773;28;20172;-72
2021/04/16 00:10:16;;;;;;;1.55;1.45;;;-0.40;99.90;;;;;;4989685;28;20226;-72
2021/04/16 00:12:42;;;;;;;0.30;0.30;;;-0.30;99.90;;;;;;4989649;28;20677;-72
2021/04/16 00:15:16;;;;;;;0.10;0.10;;;-0.30;99.90;;;;;;4989698;28;20174;-72
2021/04/16 00:17:42;;;;;;;0.20;0.20;;;-0.30;99.90;;;;;;4989611;28;20211;-72
2021/04/16 00:20:11;;;;;;;0.10;0.10;;;-0.30;99.90;;;;;;4989348;28;20231;-73
2021/04/16 00:22:37;;;;;;;0.10;0.10;;;-0.40;99.90;;;;;;4989608;28;20218;-68
2021/04/16 00:25:05;;;;;;;0.10;0.10;;;-0.50;99.90;;;;;;4988172;28;20175;-68
2021/04/16 00:27:31;;;;;;;0.15;0.15;;;-0.70;99.90;;;;;;4989464;28;20167;-68
2021/04/16 00:29:57;;;;;;;0.10;0.10;;;-0.70;99.90;;;;;;4989374;28;20226;-68
2021/04/16 00:32:23;;;;;;;0.13;0.13;;;-0.60;99.90;;;;;;4989275;28;20214;-68
2021/04/16 00:34:49;;;;;;;0.43;0.43;;;-0.60;99.90;;;;;;4984682;28;20187;-68
2021/04/16 00:37:15;;;;;;;0.20;0.20;;;-0.70;99.90;;;;;;4969906;28;20158;-68
2021/04/16 00:39:41;;;;;;;1.10;1.10;;;-0.80;99.90;;;;;;4969918;28;20203;-67
2021/04/16 00:42:08;;;;;;;0.30;0.30;;;-0.90;99.90;;;;;;4969833;28;20203;-67
2021/04/16 00:44:35;;;;;;;0.45;0.45;;;-1.00;99.90;;;;;;4969060;28;20199;-67
2021/04/16 00:47:12;;;;;;;0.20;0.20;;;-1.00;99.90;;;;;;4987653;28;20207;-67
2021/04/16 00:49:45;;;;;;;0.10;0.10;;;-1.10;99.90;;;;;;4988910;28;20571;-67
2021/04/16 00:52:15;;;;;;;0.10;0.10;;;-1.00;99.90;;;;;;4988956;28;20669;-67
2021/04/16 00:54:43;;;;;;;0.30;0.30;;;-0.90;99.90;;;;;;4989013;28;20559;-67
2021/04/16 00:57:12;;;;;;;0.32;0.32;;;-0.90;99.90;;;;;;4988900;28;20164;-67
2021/04/16 00:59:46;;;;;;;0.20;0.20;;;-1.00;99.90;;;;;;4989013;28;20242;-68
2021/04/16 01:02:12;;;;;;;1.48;1.38;;;-1.00;99.90;;;;;;4988792;28;20191;-67
2021/04/16 01:04:38;;;;;;;1.08;1.08;;;-0.80;99.90;;;;;;4988988;28;20191;-67
2021/04/16 01:07:06;;;;;;;0.40;0.40;;;-0.90;99.90;;;;;;4988970;28;20164;-67
2021/04/16 01:09:32;;;;;;;0.55;0.55;;;-1.00;99.90;;;;;;4988952;28;20386;-69
2021/04/16 01:12:04;;;;;;;0.10;0.10;;;-1.10;99.90;;;;;;4987600;28;20216;-69
2021/04/16 01:14:31;;;;;;;1.85;1.08;;;-1.00;99.90;;;;;;4988934;28;20155;-66
2021/04/16 01:16:57;;;;;;;0.13;0.13;;;-1.00;99.90;;;;;;4989026;28;20274;-68
2021/04/16 01:19:51;;;;;;;0.20;0.20;;;-1.10;99.90;;;;;;4988781;28;20226;-68
2021/04/16 01:22:26;;;;;;;0.30;0.30;;;-1.10;99.90;;;;;;4988795;28;20307;-68
2021/04/16 01:24:58;;;;;;;0.10;0.10;;;-1.00;99.90;;;;;;4988844;28;20167;-68
2021/04/16 01:27:26;;;;;;;0.28;0.28;;;-1.10;99.90;;;;;;4988831;28;20170;-68
2021/04/16 01:29:53;;;;;;;0.30;0.30;;;-1.10;99.90;;;;;;4987373;28;20214;-68
2021/04/16 01:32:30;;;;;;;0.20;0.20;;;-1.10;99.90;;;;;;4988815;28;20219;-68
2021/04/16 01:34:57;;;;;;;0.63;0.63;;;-1.10;99.90;;;;;;4988660;28;20171;-68
2021/04/16 01:37:27;;;;;;;0.20;0.20;;;-1.10;99.90;;;;;;4987479;28;20267;-69
2021/04/16 01:39:53;;;;;;;0.20;0.20;;;-1.00;99.90;;;;;;4988711;28;20234;-68
2021/04/16 01:42:20;;;;;;;0.15;0.15;;;-1.10;99.90;;;;;;4988677;28;20282;-68
2021/04/16 01:44:47;;;;;;;0.20;0.20;;;-1.20;99.90;;;;;;4988711;28;20178;-68
2021/04/16 01:47:15;;;;;;;2.25;2.15;;;-1.00;99.90;;;;;;4987409;28;20195;-68
2021/04/16 01:49:50;;;;;;;0.10;0.10;;;-0.90;99.90;;;;;;4988526;28;20191;-68
2021/04/16 01:52:34;;;;;;;0.20;0.20;;;-0.70;99.90;;;;;;4985700;28;20681;-68
2021/04/16 01:55:02;;;;;;;0.13;0.13;;;-0.60;99.90;;;;;;4969257;28;20635;-68
2021/04/16 01:57:34;;;;;;;0.17;0.17;;;-0.60;99.90;;;;;;4983139;28;20297;-68
2021/04/16 02:00:00;;;;;;;0.20;0.20;;;-0.60;99.90;;;;;;4992093;28;20167;-68
2021/04/16 02:02:35;;;;;;;0.30;0.30;;;-0.70;99.90;;;;;;4990698;28;20222;-68
2021/04/16 02:05:02;;;;;;;0.82;0.82;;;-0.80;99.90;;;;;;4990698;28;20174;-68
2021/04/16 02:07:28;;;;;;;0.20;0.20;;;-0.70;99.90;;;;;;4990884;28;20175;-68
2021/04/16 02:09:54;;;;;;;0.10;0.10;;;-0.60;99.90;;;;;;4991876;28;20195;-68
2021/04/16 02:12:22;;;;;;;0.10;0.10;;;-0.60;99.90;;;;;;4991895;28;20250;-68
2021/04/16 02:14:49;;;;;;;0.20;0.20;;;-0.60;99.90;;;;;;4990667;28;20558;-67
2021/04/16 02:17:18;;;;;;;0.30;0.30;;;-0.80;99.90;;;;;;4991840;28;20570;-67
2021/04/16 02:19:44;;;;;;;0.52;0.52;;;-0.80;99.90;;;;;;4991648;28;20219;-67
2021/04/16 02:22:20;;;;;;;0.65;0.65;;;-0.80;99.90;;;;;;4991608;28;20538;-67
2021/04/16 02:24:46;;;;;;;0.20;0.20;;;-0.90;99.90;;;;;;4990408;28;20198;-67
2021/04/16 02:27:18;;;;;;;0.10;0.10;;;-0.90;99.90;;;;;;4990257;28;20179;-67
2021/04/16 02:29:44;;;;;;;0.40;0.40;;;-1.00;99.90;;;;;;4990108;28;20234;-67
2021/04/16 02:32:11;;;;;;;0.80;0.80;;;-1.00;99.90;;;;;;4991541;28;20199;-68
2021/04/16 02:34:37;;;;;;;0.20;0.20;;;-1.10;99.90;;;;;;4986780;28;20188;-69
2021/04/16 02:37:07;;;;;;;0.10;0.10;;;-1.00;99.90;;;;;;4972171;28;20168;-68
2021/04/16 02:39:34;;;;;;;0.10;0.10;;;-0.90;99.90;;;;;;4972132;28;20528;-67
2021/04/16 02:42:00;;;;;;;0.20;0.20;;;-0.90;99.90;;;;;;4972307;28;20592;-67
2021/04/16 02:44:27;;;;;;;0.32;0.30;;;-0.90;99.90;;;;;;4971842;28;20172;-68
2021/04/16 02:46:57;;;;;;;0.30;0.30;;;-0.90;99.90;;;;;;4971718;28;20251;-68
2021/04/16 02:49:23;;;;;;;1.17;0.85;;;-1.10;99.90;;;;;;4971309;28;20283;-68
2021/04/16 02:51:50;;;;;;;0.10;0.10;;;-1.00;99.90;;;;;;4971620;28;20262;-67
2021/04/16 02:54:17;;;;;;;0.40;0.40;;;-1.00;99.90;;;;;;4988666;28;20230;-68
2021/04/16 02:56:43;;;;;;;0.10;0.10;;;-0.90;99.90;;;;;;4990634;28;20183;-70
2021/04/16 02:59:09;;;;;;;0.40;0.40;;;-0.80;99.90;;;;;;4990393;28;20222;-68
2021/04/16 03:01:36;;;;;;;0.20;0.20;;;-0.80;99.90;;;;;;4989411;28;20206;-67
2021/04/16 03:04:03;;;;;;;0.20;0.20;;;-0.80;99.90;;;;;;4990608;28;20187;-67
2021/04/16 03:06:29;;;;;;;0.20;0.20;;;-0.90;99.90;;;;;;4990433;28;20155;-67
2021/04/16 03:08:57;;;;;;;0.68;0.68;;;-0.90;99.90;;;;;;4989944;28;20156;-67
2021/04/16 03:11:25;;;;;;;0.15;0.15;;;-1.00;99.90;;;;;;4990469;28;20225;-67
2021/04/16 03:13:52;;;;;;;0.10;0.10;;;-1.10;99.90;;;;;;4990799;28;20180;-68
2021/04/16 03:16:19;;;;;;;0.20;0.20;;;-1.30;99.90;;;;;;4990844;28;20159;-69
2021/04/16 03:18:45;;;;;;;0.20;0.20;;;-1.20;99.90;;;;;;4990287;28;20171;-69
2021/04/16 03:21:11;;;;;;;0.20;0.20;;;-1.20;99.90;;;;;;4990287;28;20258;-69
2021/04/16 03:23:37;;;;;;;0.13;0.13;;;-1.20;99.90;;;;;;4990466;28;20179;-67
2021/04/16 03:26:03;;;;;;;0.73;0.73;;;-1.30;99.90;;;;;;4988924;28;20550;-67
2021/04/16 03:28:30;;;;;;;0.28;0.28;;;-1.40;99.90;;;;;;4988947;28;20176;-68
2021/04/16 03:30:56;;;;;;;0.20;0.20;;;-1.50;99.90;;;;;;4988724;28;20571;-67
2021/04/16 03:33:22;;;;;;;0.20;0.20;;;-1.40;99.90;;;;;;4985559;28;20195;-67
2021/04/16 03:35:48;;;;;;;0.52;0.52;;;-1.30;99.90;;;;;;4970754;28;20247;-68
2021/04/16 03:38:15;;;;;;;0.10;0.10;;;-1.20;99.90;;;;;;4970581;28;20157;-67
2021/04/16 03:40:41;;;;;;;0.10;0.10;;;-1.20;99.90;;;;;;4969492;29;20176;-67
2021/04/16 03:43:07;;;;;;;0.10;0.10;;;-1.20;99.90;;;;;;4970625;28;20214;-66
2021/04/16 03:45:33;;;;;;;0.22;0.22;;;-1.20;99.90;;;;;;4970720;28;20176;-67
2021/04/16 03:47:59;;;;;;;0.13;0.13;;;-1.30;99.90;;;;;;4970697;28;20269;-69
2021/04/16 03:50:30;;;;;;;0.20;0.20;;;-1.40;99.90;;;;;;4970151;28;20540;-67
2021/04/16 03:52:56;;;;;;;0.10;0.10;;;-1.50;99.90;;;;;;4975984;28;20191;-67
2021/04/16 03:55:25;;;;;;;0.20;0.20;;;-1.70;99.90;;;;;;4987386;28;20198;-70
2021/04/16 03:57:51;;;;;;;0.10;0.10;;;-1.70;99.90;;;;;;4987835;28;20190;-68
2021/04/16 04:00:21;;;;;;;0.20;0.20;;;-1.60;99.90;;;;;;4989400;28;20657;-69
2021/04/16 04:02:47;;;;;;;0.10;0.10;;;-1.60;99.90;;;;;;4989385;28;20195;-68
2021/04/16 04:05:13;;;;;;;0.30;0.30;;;-1.50;99.90;;;;;;4989562;28;20198;-68
2021/04/16 04:07:39;;;;;;;0.20;0.20;;;-1.40;99.90;;;;;;4989521;28;20198;-67
2021/04/16 04:10:06;;;;;;;0.13;0.13;;;-1.50;99.90;;;;;;4989003;28;20263;-69
2021/04/16 04:12:32;;;;;;;0.98;0.75;;;-1.70;99.90;;;;;;4987951;28;20263;-68
2021/04/16 04:14:58;;;;;;;0.25;0.25;;;-1.70;99.90;;;;;;4989326;28;20168;-68
2021/04/16 04:17:27;;;;;;;0.20;0.20;;;-1.70;99.90;;;;;;4989066;28;20194;-66
2021/04/16 04:19:53;;;;;;;0.10;0.10;;;-1.70;99.90;;;;;;4987515;28;20266;-67
2021/04/16 04:22:20;;;;;;;0.10;0.10;;;-1.60;99.90;;;;;;4988774;28;20210;-67
2021/04/16 04:24:46;;;;;;;1.17;0.60;;;-1.50;99.90;;;;;;4989103;28;20163;-67
2021/04/16 04:27:12;;;;;;;0.32;0.32;;;-1.50;99.90;;;;;;4989533;28;20179;-67
2021/04/16 04:29:38;;;;;;;0.10;0.10;;;-1.50;99.90;;;;;;4989370;28;20206;-68
2021/04/16 04:32:05;;;;;;;0.17;0.17;;;-1.30;99.90;;;;;;4989292;28;20217;-68
2021/04/16 04:34:32;;;;;;;0.20;0.20;;;-1.20;99.90;;;;;;4987563;28;20182;-67
2021/04/16 04:37:00;;;;;;;0.10;0.10;;;-1.10;99.90;;;;;;4989426;28;20187;-67
2021/04/16 04:39:28;;;;;;;0.40;0.40;;;-1.10;99.90;;;;;;4989272;28;20163;-68
2021/04/16 04:41:55;;;;;;;0.10;0.10;;;-0.90;99.90;;;;;;4989551;28;20210;-68
2021/04/16 04:44:21;;;;;;;0.90;0.90;;;-0.80;99.90;;;;;;4987923;28;20199;-68
2021/04/16 04:46:47;;;;;;;0.85;0.65;;;-0.70;99.90;;;;;;4989284;28;20160;-68
2021/04/16 04:49:16;;;;;;;0.10;0.10;;;-0.60;99.90;;;;;;4989153;28;20198;-67
2021/04/16 04:51:42;;;;;;;0.10;0.10;;;-0.30;99.90;;;;;;4989439;28;20187;-68
2021/04/16 04:54:09;;;;;;;0.17;0.17;;;0.40;99.90;;;;;;4989047;28;20158;-68
2021/04/16 04:56:36;;;;;;;1.63;1.63;;;1.20;99.90;;;;;;4987919;28;20175;-68
2021/04/16 04:59:03;;;;;;;0.10;0.10;;;1.80;99.90;;;;;;4988552;28;20207;-68
2021/04/16 05:01:29;;;;;;;0.10;0.10;;;2.40;99.90;;;;;;4984865;28;20203;-68
2021/04/16 05:03:55;;;;;;;0.50;0.50;;;2.60;99.90;;;;;;4987696;28;20183;-68
2021/04/16 05:06:21;;;;;;;0.10;0.10;;;2.30;99.90;;;;;;4988802;28;20194;-68
2021/04/16 05:08:47;;;;;;;0.10;0.10;;;2.30;99.90;;;;;;4988696;28;20167;-68
2021/04/16 05:11:13;;;;;;;0.40;0.40;;;2.60;99.90;;;;;;4988454;28;20657;-68
2021/04/16 05:13:39;;;;;;;0.10;0.10;;;3.10;99.90;;;;;;4988605;28;20170;-67
2021/04/16 05:16:08;;;;;;;0.20;0.20;;;3.70;99.90;;;;;;4988642;28;20244;-67
2021/04/16 05:18:35;;;;;;;0.10;0.10;;;4.40;99.90;;;;;;4988572;28;20238;-67
2021/04/16 05:21:02;;;;;;;0.70;0.70;;;5.00;99.90;;;;;;4988403;28;20180;-67
2021/04/16 05:23:28;;;;;;;0.10;0.10;;;5.30;99.90;;;;;;4988111;28;20167;-68
2021/04/16 05:25:54;;;;;;;0.55;0.55;;;5.50;99.90;;;;;;4988556;28;20179;-67
2021/04/16 05:28:20;;;;;;;4.03;2.55;;;6.30;99.90;;;;;;4988419;28;20166;-67
2021/04/16 05:30:46;;;;;;;0.43;0.30;;;6.20;99.90;;;;;;4989403;28;20199;-68
2021/04/16 05:33:12;;;;;;;0.40;0.40;;;6.00;99.90;;;;;;4992174;28;20522;-68
2021/04/16 05:35:38;;;;;;;2.10;1.95;;;6.20;99.90;;;;;;4990930;28;20182;-67
2021/04/16 05:38:04;;;;;;;0.30;0.30;;;6.50;99.90;;;;;;4992237;28;20167;-69
2021/04/16 05:40:30;;;;;;;0.17;0.17;;;6.70;99.90;;;;;;4989358;28;20193;-67
2021/04/16 05:42:57;;;;;;;0.10;0.10;;;8.00;99.90;;;;;;4992085;28;20191;-68
2021/04/16 05:45:23;;;;;;;0.30;0.30;;;7.80;99.90;;;;;;4992246;28;20183;-68
2021/04/16 05:47:49;;;;;;;0.20;0.20;;;7.40;99.90;;;;;;4992441;28;20170;-67
2021/04/16 05:50:16;;;;;;;0.25;0.25;;;8.20;99.90;;;;;;4992083;28;20191;-67
2021/04/16 05:52:43;;;;;;;0.22;0.22;;;8.80;99.90;;;;;;4991891;28;20278;-68
2021/04/16 05:55:10;;;;;;;0.10;0.10;;;9.20;99.90;;;;;;4992049;28;20156;-68
2021/04/16 05:57:36;;;;;;;0.20;0.20;;;9.20;99.90;;;;;;4991684;28;20183;-68
2021/04/16 06:00:04;;;;;;;1.27;1.17;;;9.80;99.90;;;;;;4991535;28;20195;-67
2021/04/16 06:02:33;;;;;;;0.57;0.40;;;9.90;99.90;;;;;;4991772;28;20187;-70
2021/04/16 06:05:01;;;;;;;2.08;0.68;;;9.90;99.90;;;;;;4991541;28;20231;-69
2021/04/16 06:07:27;;;;;;;0.15;0.15;;;10.50;99.90;;;;;;4991522;28;20159;-68
2021/04/16 06:09:55;;;;;;;0.28;0.28;;;10.50;99.90;;;;;;4991273;28;20218;-67
2021/04/16 06:12:22;;;;;;;0.75;0.68;;;10.70;99.90;;;;;;4990953;28;20172;-67
2021/04/16 06:14:48;;;;;;;0.55;0.55;;;10.90;99.90;;;;;;4989708;28;20230;-68
2021/04/16 06:17:16;;;;;;;0.80;0.80;;;11.40;99.90;;;;;;4991390;28;20255;-68
2021/04/16 06:19:43;;;;;;;1.00;0.45;;;11.90;99.90;;;;;;4989781;28;20231;-68
2021/04/16 06:22:10;;;;;;;0.13;0.13;;;11.40;99.90;;;;;;4991386;28;20182;-68
2021/04/16 06:24:36;;;;;;;0.75;0.75;;;12.50;99.90;;;;;;4991447;28;20160;-73
2021/04/16 06:27:03;;;;;;;1.38;1.27;;;12.70;99.90;;;;;;4991269;28;20167;-75
2021/04/16 06:29:30;;;;;;;3.13;2.33;;;12.60;99.90;;;;;;4991103;28;20191;-72
2021/04/16 06:31:57;;;;;;;0.43;0.43;;;12.90;99.90;;;;;;4991420;28;20257;-73
2021/04/16 06:34:22;;;;;;;1.52;1.27;;;12.70;99.90;;;;;;4991268;28;20159;-73
2021/04/16 06:36:49;;;;;;;1.70;1.13;;;14.10;99.90;;;;;;4991329;28;20191;-74
2021/04/16 06:39:15;;;;;;;0.52;0.52;;;14.80;99.90;;;;;;4990900;28;20187;-72
2021/04/16 06:41:44;;;;;;;1.75;1.65;;;14.50;99.90;;;;;;4990242;28;20148;-72
2021/04/16 06:44:14;;;;;;;0.25;0.25;;;14.40;99.90;;;;;;4989297;28;20186;-73
2021/04/16 06:46:45;;;;;;;0.17;0.17;;;13.60;99.90;;;;;;4990979;28;20168;-73
2021/04/16 06:49:16;;;;;;;0.38;0.38;;;14.00;99.90;;;;;;4990854;28;20214;-74
2021/04/16 06:52:02;;;;;;;0.30;0.30;;;14.20;99.90;;;;;;4990870;28;20198;-73
2021/04/16 06:54:52;;;;;;;0.65;0.65;;;13.40;99.90;;;;;;4990848;28;20186;-74
2021/04/16 06:57:52;;;;;;;0.50;0.22;;;13.40;99.90;;;;;;4978880;28;20198;-74
2021/04/16 07:00:32;;;;;;;0.68;0.68;;;13.70;99.90;;;;;;4990795;28;20229;-74
2021/04/16 07:03:18;;;;;;;0.13;0.13;;;13.80;99.90;;;;;;4990604;28;20182;-74
2021/04/16 07:06:05;;;;;;;0.47;0.47;;;14.00;99.90;;;;;;4990724;28;20221;-73
2021/04/16 07:08:30;;;;;;;0.40;0.40;;;14.30;99.90;;;;;;4990815;28;20170;-73
2021/04/16 07:10:58;;;;;;;3.03;0.77;;;14.50;99.90;;;;;;4971359;28;20203;-73
2021/04/16 07:13:36;;;;;;;0.30;0.30;;;14.80;99.90;;;;;;4971180;28;20152;-73
2021/04/16 07:16:02;;;;;;;0.30;0.30;;;15.40;99.90;;;;;;4971091;28;20156;-73
2021/04/16 07:18:50;;;;;;;2.22;2.08;;;15.60;99.90;;;;;;4970984;28;20172;-73
2021/04/16 07:21:19;;;;;;;0.70;0.70;;;14.70;99.90;;;;;;4970799;28;20218;-72
2021/04/16 07:23:50;;;;;;;0.32;0.32;;;14.50;99.90;;;;;;4970758;28;20281;-72
2021/04/16 07:26:39;;;;;;;1.10;0.68;;;14.40;99.90;;;;;;4970806;28;20160;-73
2021/04/16 07:29:07;;;;;;;0.20;0.20;;;14.20;99.30;;;;;;4970653;28;20187;-74
2021/04/16 07:31:33;;;;;;;0.55;0.55;;;14.40;99.90;;;;;;4969067;29;20330;-74
2021/04/16 07:34:01;;;;;;;0.85;0.85;;;14.80;99.30;;;;;;4970490;28;20159;-72
2021/04/16 07:36:35;;;;;;;1.00;0.73;;;15.30;98.40;;;;;;4982629;28;20209;-75
2021/04/16 07:39:04;;;;;;;6.00;0.95;;;15.70;97.80;;;;;;4989669;28;20195;-74
2021/04/16 07:41:39;;;;;;;0.95;0.95;;;15.70;98.70;;;;;;4972724;28;20184;-73
2021/04/16 07:44:05;;;;;;;0.30;0.30;;;15.70;96.90;;;;;;4973372;28;20198;-73
2021/04/16 07:46:36;;;;;;;0.47;0.28;;;16.10;96.00;;;;;;4965601;28;20172;-74
2021/04/16 07:49:14;;;;;;;0.20;0.20;;;15.30;95.60;;;;;;4965098;28;20215;-73
2021/04/16 07:51:46;;;;;;;0.25;0.25;;;16.10;95.10;;;;;;4965132;28;20171;-74
2021/04/16 07:54:17;;;;;;;1.08;0.40;;;17.00;94.10;;;;;;4963950;28;20560;-74
2021/04/16 07:56:44;;;;;;;0.52;0.52;;;17.70;92.60;;;;;;4965068;28;20196;-73
2021/04/16 07:59:14;;;;;;;0.28;0.28;;;17.90;91.60;;;;;;4964855;28;20196;-73
2021/04/16 08:01:43;;;;;;;0.20;0.20;;;17.00;92.20;;;;;;4962562;28;20199;-73
2021/04/16 08:04:29;;;;;;;0.45;0.38;;;16.90;92.10;;;;;;4963987;28;20161;-73
2021/04/16 08:07:16;;;;;;;0.50;0.50;;;14.80;92.90;;;;;;4975372;28;20203;-73
2021/04/16 08:09:45;;;;;;;0.70;0.70;;;15.50;94.10;;;;;;4982788;28;20210;-73
2021/04/16 08:12:15;;;;;;;3.80;0.52;;;16.30;94.90;;;;;;4983306;28;20187;-73
2021/04/16 08:14:43;;;;;;;0.50;0.50;;;17.30;91.80;;;;;;4983421;28;20197;-74
2021/04/16 08:17:21;;;;;;;2.20;0.95;;;17.70;93.00;;;;;;4983873;28;20206;-73
2021/04/16 08:19:47;;;;;;;1.55;1.08;;;16.80;92.00;;;;;;4983711;28;20249;-72
2021/04/16 08:22:22;;;;;;;1.10;1.00;;;17.00;92.80;;;;;;4984149;28;20166;-74
2021/04/16 08:25:12;;;;;;;0.65;0.65;;;16.00;92.70;;;;;;4983642;28;20154;-74
2021/04/16 08:27:46;;;;;;;2.45;0.93;;;16.10;92.70;;;;;;4984029;28;20163;-76
2021/04/16 08:30:27;;;;;;;0.65;0.65;;;17.50;92.10;;;;;;4982457;28;20203;-72
2021/04/16 08:33:04;;;;;;;1.05;0.98;;;17.60;91.20;;;;;;4981914;28;20177;-73
2021/04/16 08:35:49;;;;;;;2.10;0.85;;;17.90;91.50;;;;;;4983263;28;20193;-73
2021/04/16 08:38:19;;;;;;;0.55;0.55;;;18.80;90.10;;;;;;4983880;28;20171;-73
2021/04/16 08:40:58;;;;;;;0.70;0.70;;;18.60;90.60;;;;;;4983293;28;20171;-73
2021/04/16 08:43:40;;;;;;;1.85;0.70;;;18.80;88.60;;;;;;4983701;28;20195;-74
2021/04/16 08:46:23;;;;;;;0.25;0.25;;;18.80;86.50;;;;;;4982826;28;20285;-74
2021/04/16 08:48:54;;;;;;;1.00;0.77;;;18.40;86.70;;;;;;4983823;28;20174;-74
2021/04/16 08:51:25;;;;;;;0.77;0.65;;;18.60;86.80;;;;;;4983485;28;20190;-74
2021/04/16 08:54:00;;;;;;;1.08;0.82;;;17.50;86.40;;;;;;4983284;28;20163;-70
2021/04/16 08:56:33;;;;;;;2.25;1.00;;;18.20;86.20;;;;;;4981825;28;20205;-75
2021/04/16 08:59:12;;;;;;;1.13;0.52;;;18.80;86.10;;;;;;4982254;28;20262;-74
2021/04/16 09:01:56;;;;;;;0.30;0.30;;;16.90;87.00;;;;;;4983688;28;20223;-73
2021/04/16 09:04:44;;;;;;;0.40;0.40;;;14.00;90.50;;;;;;4982456;28;20171;-74
2021/04/16 09:07:33;;;;;;;0.73;0.73;;;13.50;91.60;;;;;;4982851;28;20191;-74
2021/04/16 09:10:00;;;;;;;0.10;0.10;;;14.60;91.60;;;;;;4981688;28;20298;-74
2021/04/16 09:12:45;;;;;;;0.20;0.20;;;15.80;91.90;;;;;;4983559;28;20222;-74
2021/04/16 09:15:20;;;;;;;1.27;1.23;;;17.30;87.50;;;;;;4979168;28;20171;-73
2021/04/16 09:17:52;;;;;;;0.47;0.45;;;16.50;90.30;;;;;;4979027;28;20183;-74
2021/04/16 09:20:25;;;;;;;1.75;0.95;;;16.90;90.60;;;;;;4985333;28;20572;-73
2021/04/16 09:22:54;;;;;;;0.40;0.40;;;16.80;90.00;;;;;;4977788;28;20223;-73
2021/04/16 09:25:40;;;;;;;0.30;0.25;;;17.80;86.80;;;;;;4968321;28;20223;-73
2021/04/16 09:28:21;;;;;;;0.20;0.20;;;17.70;86.00;;;;;;4969144;28;20172;-74
2021/04/16 09:30:57;;;;;;;1.40;1.30;;;18.20;85.80;;;;;;4967791;29;20530;-75
2021/04/16 09:33:37;;;;;;;0.68;0.68;;;18.90;87.30;;;;;;4967751;29;20229;-74
2021/04/16 09:36:30;;;;;;;0.45;0.30;;;19.80;86.50;;;;;;4969252;28;20167;-73
2021/04/16 09:39:31;;;;;;;0.50;0.50;;;20.60;83.10;;;;;;4968983;29;20186;-75
2021/04/16 09:41:57;;;;;;;1.02;0.93;;;20.30;82.10;;;;;;4967469;29;20175;-73
2021/04/16 09:44:28;;;;;;;0.50;0.50;;;19.90;82.70;;;;;;4967406;29;20210;-72
2021/04/16 09:47:04;;;;;;;0.82;0.50;;;19.30;81.20;;;;;;4968750;28;20164;-72
2021/04/16 09:49:39;;;;;;;1.75;1.27;;;18.70;85.20;;;;;;4968546;28;20171;-75
2021/04/16 09:52:27;;;;;;;1.25;0.68;;;19.50;82.40;;;;;;4967176;29;20167;-74
2021/04/16 09:54:54;;;;;;;0.45;0.45;;;19.00;82.60;;;;;;4968613;28;20674;-74
2021/04/16 09:57:20;;;;;;;3.85;0.95;;;17.10;84.20;;;;;;4967270;28;20240;-73
2021/04/16 09:59:47;;;;;;;0.20;0.20;;;15.20;86.70;;;;;;4968781;28;20165;-73
2021/04/16 10:02:13;;;;;;;0.55;0.55;;;13.70;88.90;;;;;;4967341;29;20200;-73
2021/04/16 10:05:01;;;;;;;2.05;0.95;;;12.70;91.00;;;;;;4968568;28;20543;-74
2021/04/16 10:07:38;;;;;;;0.10;0.10;;;11.50;92.20;;;;;;4968589;28;20153;-74
2021/04/16 10:10:27;;;;;;;1.08;0.88;;;11.60;92.00;;;;;;4968460;28;20223;-74
2021/04/16 10:13:25;;;;;;;1.38;0.70;;;12.00;92.00;;;;;;4968747;28;20184;-74
2021/04/16 10:15:57;;;;;;;1.10;0.45;;;11.30;93.50;;;;;;4968668;28;20192;-73
2021/04/16 10:18:39;;;;;;;0.10;0.10;;;11.00;93.10;;;;;;4972029;28;20171;-74
2021/04/16 10:21:14;;;;;;;9.40;1.17;;;10.50;93.90;;;;;;4970246;29;20195;-73
2021/04/16 10:23:42;;;;;;;0.20;0.20;;;10.60;93.60;;;;;;4971744;28;20171;-74
2021/04/16 12:38:50;;;;;;;0.20;0.20;;;11.40;91.80;;;;;;4983126;28;20183;-73
2021/04/16 12:41:21;;;;;;;0.82;0.77;;;10.90;92.40;;;;;;4982688;28;20185;-73
2021/04/16 12:43:49;;;;;;;0.10;0.10;;;10.50;93.10;;;;;;4983596;28;20160;-73
2021/04/16 12:46:18;;;;;;;0.20;0.20;;;10.90;93.90;;;;;;4982078;28;20199;-73
2021/04/16 12:48:45;;;;;;;0.65;0.65;;;11.50;93.00;;;;;;4983036;28;20182;-75
2021/04/16 12:51:12;;;;;;;0.45;0.30;;;11.60;91.90;;;;;;4983127;28;20214;-75
2021/04/16 12:53:39;;;;;;;0.20;0.20;;;11.60;91.90;;;;;;4982190;28;20180;-75
2021/04/16 12:56:08;;;;;;;0.10;0.10;;;11.60;91.20;;;;;;4983400;28;20195;-75
2021/04/16 12:58:38;;;;;;;0.10;0.10;;;11.60;92.00;;;;;;4982827;28;20182;-74
2021/04/16 13:01:08;;;;;;;0.47;0.47;;;11.80;90.60;;;;;;4983279;28;20236;-74
2021/04/16 13:03:35;;;;;;;0.65;0.30;;;11.60;91.50;;;;;;4982599;28;20220;-74
2021/04/16 13:06:03;;;;;;;0.95;0.40;;;11.30;92.40;;;;;;4983310;28;20204;-73
2021/04/16 13:08:29;;;;;;;0.10;0.10;;;11.10;92.10;;;;;;4983117;28;20151;-75
2021/04/16 13:10:55;;;;;;;0.30;0.30;;;10.60;92.80;;;;;;4981975;28;20590;-75
2021/04/16 13:13:21;;;;;;;0.77;0.50;;;10.30;92.70;;;;;;4982943;28;20257;-75
2021/04/16 13:15:48;;;;;;;0.45;0.45;;;10.50;93.20;;;;;;4981406;28;20241;-74
2021/04/16 13:18:32;;;;;;;0.10;0.10;;;10.80;93.00;;;;;;4980871;28;20250;-74
2021/04/16 13:20:59;;;;;;;0.10;0.10;;;10.80;92.50;;;;;;4981536;28;20230;-74
2021/04/16 13:23:25;;;;;;;0.20;0.20;;;11.10;92.70;;;;;;4982382;28;20198;-74
2021/04/16 13:25:51;;;;;;;0.20;0.20;;;11.30;92.60;;;;;;4983082;28;20167;-73
2021/04/16 13:28:17;;;;;;;0.60;0.60;;;11.30;92.30;;;;;;4982697;28;20510;-74
2021/04/16 13:30:43;;;;;;;0.28;0.28;;;11.60;94.40;;;;;;4981416;28;20215;-74
2021/04/16 13:33:16;;;;;;;0.52;0.52;;;11.70;91.50;;;;;;4960076;28;20689;-73
2021/04/16 13:35:54;;;;;;;0.90;0.88;;;11.40;92.00;;;;;;4962995;28;20192;-74
2021/04/16 13:38:27;;;;;;;0.10;0.10;;;11.20;92.70;;;;;;4962245;28;20182;-74
2021/04/16 13:40:54;;;;;;;0.30;0.10;;;11.20;92.30;;;;;;4963220;28;20721;-74
2021/04/16 13:43:21;;;;;;;0.20;0.20;;;11.40;92.30;;;;;;4963238;28;20691;-74
2021/04/16 13:45:47;;;;;;;0.77;0.77;;;11.40;92.20;;;;;;4962238;28;20239;-69
2021/04/16 13:48:15;;;;;;;0.10;0.10;;;11.40;93.40;;;;;;4961031;29;20204;-69
2021/04/16 13:50:41;;;;;;;0.03;0.03;;;11.40;92.80;;;;;;4963213;28;20196;-68
2021/04/16 13:53:07;;;;;;;0.30;0.28;;;11.20;93.10;;;;;;4983290;28;20230;-68
2021/04/16 13:55:33;;;;;;;0.30;0.30;;;11.20;93.30;;;;;;4982697;28;20227;-68
2021/04/16 13:57:59;;;;;;;0.00;0.00;;;11.40;94.00;;;;;;4966874;28;20238;-68
2021/04/16 14:00:29;;;;;;;0.17;0.17;;;11.70;94.10;;;;;;4966893;28;20164;-68
2021/04/16 14:03:01;;;;;;;0.40;0.40;;;11.90;92.40;;;;;;4966929;28;20216;-68
2021/04/16 14:05:29;;;;;;;0.17;0.17;;;11.50;94.00;;;;;;4966797;28;20168;-67
2021/04/16 14:07:59;;;;;;;0.32;0.32;;;11.60;92.60;;;;;;4967092;28;20170;-68
2021/04/16 14:10:25;;;;;;;0.28;0.28;;;11.10;93.30;;;;;;4966852;28;20187;-68
2021/04/16 14:12:52;;;;;;;0.10;0.10;;;11.50;94.10;;;;;;4982093;28;20215;-68
2021/04/16 14:15:19;;;;;;;0.05;0.05;;;11.50;92.50;;;;;;4986048;28;20159;-68
2021/04/16 14:17:53;;;;;;;0.82;0.82;;;11.30;92.70;;;;;;4985614;28;20164;-68
2021/04/16 14:20:36;;;;;;;0.10;0.10;;;11.40;93.00;;;;;;4966942;28;20223;-68
2021/04/16 14:23:03;;;;;;;1.05;1.05;;;11.30;93.00;;;;;;4983077;28;20957;-69
2021/04/16 14:25:33;;;;;;;0.10;0.10;;;11.00;93.00;;;;;;4986074;28;20159;-69
2021/04/16 14:28:00;;;;;;;0.10;0.10;;;10.80;93.10;;;;;;4984218;28;20186;-68
2021/04/16 14:30:29;;;;;;;0.00;0.00;;;10.90;93.80;;;;;;4984546;28;20203;-71
2021/04/16 14:32:57;;;;;;;0.10;0.10;;;10.90;94.40;;;;;;4981805;28;20199;-68
2021/04/16 14:35:26;;;;;;;0.10;0.10;;;11.10;93.30;;;;;;4985441;28;20642;-70
2021/04/16 14:37:53;;;;;;;0.10;0.10;;;11.10;93.10;;;;;;4965083;28;20238;-69
2021/04/16 14:40:20;;;;;;;0.10;0.10;;;10.90;93.80;;;;;;4964671;28;20188;-68
2021/04/16 14:42:47;;;;;;;0.20;0.20;;;10.90;93.30;;;;;;4964854;29;20180;-68
2021/04/16 14:45:17;;;;;;;0.17;0.17;;;10.80;93.00;;;;;;4968775;28;20579;-69
2021/04/16 14:47:43;;;;;;;0.10;0.10;;;10.80;93.50;;;;;;4971420;28;20164;-68
2021/04/16 14:50:11;;;;;;;0.30;0.30;;;10.90;93.10;;;;;;4971555;28;20243;-68
2021/04/16 14:52:38;;;;;;;0.45;0.45;;;10.70;92.80;;;;;;4971372;28;20272;-68
2021/04/16 14:55:14;;;;;;;0.00;0.00;;;10.80;93.00;;;;;;4973882;28;20259;-68
2021/04/16 14:57:41;;;;;;;0.10;0.10;;;10.80;93.20;;;;;;4979825;28;20199;-68
2021/04/16 15:00:29;;;;;;;0.10;0.10;;;10.70;93.50;;;;;;4982256;28;20183;-69
2021/04/16 15:02:56;;;;;;;0.38;0.35;;;10.60;93.70;;;;;;4972583;28;20176;-70
2021/04/16 15:05:24;;;;;;;0.10;0.10;;;10.80;94.10;;;;;;4965840;28;20592;-69
2021/04/16 15:07:54;;;;;;;0.10;0.10;;;11.00;93.90;;;;;;4970698;28;20220;-69
2021/04/16 15:10:30;;;;;;;0.00;0.00;;;10.90;94.30;;;;;;4971507;28;20188;-69
2021/04/16 15:12:56;;;;;;;0.10;0.10;;;11.20;93.50;;;;;;4971343;28;20511;-69
2021/04/16 15:15:37;;;;;;;0.08;0.08;;;10.80;93.60;;;;;;4968064;29;20200;-68